Time;durP1;ratioP1;P1;durP2;ratioP2;P2;SDS_P1;SDS_P2;PMS_P1;PMS_P2;Temp;Humidity;BMP_temperature;BMP_pressure;BME280_temperature;BME280_humidity;BME280_pressure;Samples;Min_cycle;Max_cycle;Signal;HPM_P1;HPM_P2
2022/03/17 00:00:33;;;;;;;8.90;3.92;;;;;;;19.76;55.81;99915.44;4926093;29;20039;-87
2022/03/17 00:02:58;;;;;;;9.73;3.78;;;;;;;19.74;55.74;99912.03;4926478;29;20078;-88
2022/03/17 00:05:24;;;;;;;8.80;3.45;;;;;;;19.78;55.79;99907.44;4926551;29;20122;-89
2022/03/17 00:07:49;;;;;;;8.02;3.15;;;;;;;19.76;55.65;99910.16;4922926;29;20484;-89
2022/03/17 00:10:16;;;;;;;8.23;2.90;;;;;;;19.73;55.76;99908.50;4923673;29;20103;-86
2022/03/17 00:12:47;;;;;;;10.60;4.40;;;;;;;19.73;55.95;99911.16;4925154;29;20035;-86
2022/03/17 00:15:13;;;;;;;7.30;3.00;;;;;;;19.76;55.81;99914.63;4927314;29;20409;-85
2022/03/17 00:17:40;;;;;;;8.02;3.35;;;;;;;19.75;55.72;99916.41;4930848;29;20033;-87
2022/03/17 00:20:07;;;;;;;8.73;3.30;;;;;;;19.76;55.78;99915.44;4932173;29;20040;-86
2022/03/17 00:22:33;;;;;;;7.93;3.30;;;;;;;19.75;55.86;99919.03;4949645;29;20034;-86
2022/03/17 00:24:58;;;;;;;9.25;3.28;;;;;;;19.74;55.89;99912.03;4932905;29;20023;-86
2022/03/17 00:27:24;;;;;;;8.15;2.90;;;;;;;19.75;55.74;99919.03;4950439;29;20035;-87
2022/03/17 00:29:50;;;;;;;10.07;3.40;;;;;;;19.75;55.84;99923.50;4952420;29;20019;-87
2022/03/17 00:32:17;;;;;;;8.25;3.10;;;;;;;19.74;55.74;99925.28;4936167;29;20024;-88
2022/03/17 00:37:26;;;;;;;8.10;3.13;;;;;;;19.74;55.73;99925.28;4944001;29;20094;-86
2022/03/17 00:39:53;;;;;;;6.40;2.70;;;;;;;19.75;55.82;99919.03;4926431;29;20369;-85
2022/03/17 00:42:20;;;;;;;6.80;2.60;;;;;;;19.76;55.85;99922.56;4924982;29;20019;-85
2022/03/17 00:44:46;;;;;;;6.75;2.92;;;;;;;19.71;55.44;99918.34;4925614;29;20023;-85
2022/03/17 00:47:13;;;;;;;7.47;2.75;;;;;;;19.72;55.67;99913.91;4923305;29;20051;-88
2022/03/17 00:49:39;;;;;;;7.85;3.17;;;;;;;19.72;55.71;99908.63;4942370;29;20016;-85
2022/03/17 00:52:10;;;;;;;6.47;2.83;;;;;;;19.72;55.84;99913.91;4925525;29;20028;-86
2022/03/17 00:54:37;;;;;;;6.40;2.90;;;;;;;19.72;55.78;99908.63;4924801;29;20038;-85
2022/03/17 00:57:02;;;;;;;6.05;2.67;;;;;;;19.72;55.74;99913.91;4925536;29;20062;-85
2022/03/17 00:59:28;;;;;;;9.25;2.83;;;;;;;19.73;55.64;99910.31;4925280;29;20110;-85
2022/03/17 01:01:54;;;;;;;6.57;2.88;;;;;;;19.72;55.58;99914.75;4943288;29;20036;-85
2022/03/17 01:04:19;;;;;;;5.80;2.67;;;;;;;19.71;55.69;99909.56;4925236;29;20027;-85
2022/03/17 01:06:45;;;;;;;7.00;3.03;;;;;;;19.71;55.67;99914.84;4926209;29;20027;-85
2022/03/17 01:09:11;;;;;;;5.85;2.30;;;;;;;19.70;55.85;99913.09;4925809;29;20020;-89
2022/03/17 01:11:36;;;;;;;5.13;2.55;;;;;;;19.70;55.83;99919.28;4941586;29;20050;-88
2022/03/17 01:14:02;;;;;;;6.45;2.65;;;;;;;19.70;55.57;99908.69;4925230;29;20043;-86
2022/03/17 01:16:27;;;;;;;5.78;2.38;;;;;;;19.70;55.92;99915.75;4924139;29;20027;-87
2022/03/17 01:18:53;;;;;;;6.55;1.90;;;;;;;19.71;55.78;99912.19;4940559;29;20027;-86
2022/03/17 01:21:18;;;;;;;7.13;2.38;;;;;;;19.71;55.67;99912.19;4943194;29;20454;-86
2022/03/17 01:23:44;;;;;;;5.90;2.47;;;;;;;19.71;55.71;99915.69;4925030;29;20051;-86
2022/03/17 01:26:10;;;;;;;6.38;2.35;;;;;;;19.71;55.78;99920.16;4924473;29;20132;-87
2022/03/17 01:28:35;;;;;;;5.93;2.30;;;;;;;19.70;55.89;99910.47;4924058;29;20031;-86
2022/03/17 01:31:01;;;;;;;5.85;2.67;;;;;;;19.71;55.65;99917.50;4925243;29;20410;-86
2022/03/17 01:33:26;;;;;;;5.43;2.08;;;;;;;19.71;55.83;99917.50;4938489;29;20038;-86
2022/03/17 01:35:52;;;;;;;5.78;2.60;;;;;;;19.71;55.96;99917.50;4921622;29;20449;-87
2022/03/17 01:38:17;;;;;;;5.40;2.17;;;;;;;19.71;55.92;99917.50;4922137;29;20027;-86
2022/03/17 01:40:43;;;;;;;7.20;2.28;;;;;;;19.70;55.82;99910.47;4922745;29;20024;-85
2022/03/17 01:43:08;;;;;;;5.45;2.35;;;;;;;19.71;55.70;99914.84;4939664;29;20023;-85
2022/03/17 01:45:34;;;;;;;4.80;1.95;;;;;;;19.69;55.91;99908.75;4922931;29;20032;-86
2022/03/17 01:48:00;;;;;;;6.07;2.50;;;;;;;19.68;55.92;99909.69;4939483;29;20028;-86
2022/03/17 01:50:26;;;;;;;5.07;2.58;;;;;;;19.67;55.91;99907.97;4923241;29;20444;-86
2022/03/17 01:52:52;;;;;;;4.82;2.10;;;;;;;19.70;55.98;99910.47;4925449;29;20102;-86
2022/03/17 01:55:18;;;;;;;6.80;2.10;;;;;;;19.67;55.78;99910.63;4924672;29;20123;-87
2022/03/17 01:57:44;;;;;;;6.35;2.30;;;;;;;19.69;55.82;99903.47;4924295;29;20042;-86
2022/03/17 02:00:13;;;;;;;4.70;1.85;;;;;;;19.68;55.84;99901.75;4923954;29;20028;-86
2022/03/17 02:02:41;;;;;;;5.20;2.03;;;;;;;19.69;55.79;99901.69;4924159;29;20054;-86
2022/03/17 02:05:07;;;;;;;3.97;1.75;;;;;;;19.69;55.99;99898.16;4924054;29;20043;-85
2022/03/17 02:07:32;;;;;;;5.93;2.20;;;;;;;19.69;55.98;99887.56;4923889;29;20035;-86
2022/03/17 02:09:59;;;;;;;6.13;2.10;;;;;;;19.70;55.92;99889.28;4940734;29;20489;-87
2022/03/17 02:15:10;;;;;;;5.68;2.08;;;;;;;19.68;55.74;99881.44;4941369;29;20046;-86
2022/03/17 02:17:39;;;;;;;5.18;1.90;;;;;;;19.69;55.77;99879.63;4924035;29;20031;-86
2022/03/17 02:20:11;;;;;;;6.55;2.08;;;;;;;19.69;55.73;99882.28;4923853;29;20368;-86
2022/03/17 02:25:33;;;;;;;5.80;2.40;;;;;;;19.67;55.73;99874.41;4923420;29;20031;-86
2022/03/17 02:25:43;;;;;;;3.97;1.80;;;;;;;19.67;56.13;99870.91;4942817;29;20035;-85
2022/03/17 02:28:09;;;;;;;5.15;1.90;;;;;;;19.66;55.79;99856.81;4925609;29;20066;-86
2022/03/17 02:30:37;;;;;;;3.97;1.77;;;;;;;19.67;55.99;99861.16;4926075;29;20039;-86
2022/03/17 02:33:10;;;;;;;5.53;1.92;;;;;;;19.66;56.06;99862.09;4925988;29;20067;-87
2022/03/17 02:35:40;;;;;;;5.20;2.17;;;;;;;19.66;55.68;99862.09;4943358;29;20036;-87
2022/03/17 02:38:06;;;;;;;4.75;1.98;;;;;;;19.70;55.75;99863.66;4926243;29;20044;-87
2022/03/17 02:40:33;;;;;;;5.43;2.28;;;;;;;19.67;55.99;99863.81;4925801;29;20043;-87
2022/03/17 02:43:00;;;;;;;5.75;1.73;;;;;;;19.66;55.72;99859.44;4926657;29;20095;-87
2022/03/17 02:45:26;;;;;;;5.20;2.03;;;;;;;19.69;55.51;99861.09;4944112;29;20055;-88
2022/03/17 02:47:52;;;;;;;5.15;2.17;;;;;;;19.68;56.00;99862.03;4927494;29;20461;-88
2022/03/17 02:50:18;;;;;;;4.50;1.85;;;;;;;19.70;55.76;99860.16;4927499;29;20063;-87
2022/03/17 02:52:44;;;;;;;4.47;1.90;;;;;;;19.66;55.75;99861.25;4944653;29;20058;-88
2022/03/17 02:55:14;;;;;;;3.97;1.77;;;;;;;19.67;56.05;99857.69;4930295;29;20035;-87
2022/03/17 02:57:40;;;;;;;5.10;1.80;;;;;;;19.67;55.91;99858.50;4944111;29;20079;-88
2022/03/17 03:00:09;;;;;;;3.35;1.75;;;;;;;19.67;56.06;99868.25;4930163;29;20066;-88
2022/03/17 03:02:35;;;;;;;3.13;1.60;;;;;;;19.66;55.80;99861.25;4951956;29;20047;-87
2022/03/17 03:05:03;;;;;;;4.45;1.60;;;;;;;19.68;56.04;99868.19;4951569;29;20133;-87
2022/03/17 03:07:28;;;;;;;4.15;1.92;;;;;;;19.67;56.00;99869.09;4943481;29;20090;-88
2022/03/17 03:09:55;;;;;;;3.83;1.63;;;;;;;19.69;55.55;99863.75;4925909;29;20358;-87
2022/03/17 03:12:21;;;;;;;3.60;1.63;;;;;;;19.69;55.93;99863.75;4941838;29;20023;-86
2022/03/17 03:14:47;;;;;;;4.60;1.75;;;;;;;19.70;55.95;99868.09;4941942;29;20457;-85
2022/03/17 03:17:13;;;;;;;4.70;1.67;;;;;;;19.69;55.92;99871.69;4941560;29;20055;-87
2022/03/17 03:19:39;;;;;;;3.85;1.60;;;;;;;19.67;55.75;99871.75;4925823;29;20052;-88
2022/03/17 03:22:04;;;;;;;4.65;1.83;;;;;;;19.67;55.80;99868.25;4942223;29;20027;-87
2022/03/17 03:24:30;;;;;;;6.72;2.08;;;;;;;19.68;55.96;99864.69;4942414;29;20027;-87
2022/03/17 03:26:55;;;;;;;4.25;1.65;;;;;;;19.69;55.73;99869.03;4927267;29;20086;-86
2022/03/17 03:29:25;;;;;;;3.45;1.45;;;;;;;19.66;55.72;99866.56;4943650;29;20347;-87
2022/03/17 03:31:56;;;;;;;3.92;1.77;;;;;;;19.66;55.87;99866.56;4926569;29;20365;-87
2022/03/17 03:34:22;;;;;;;3.15;1.50;;;;;;;19.66;55.98;99872.69;4926324;29;20031;-86
2022/03/17 03:39:33;;;;;;;2.85;1.60;;;;;;;19.66;55.74;99866.56;4943656;29;20171;-86
2022/03/17 03:41:59;;;;;;;3.75;1.75;;;;;;;19.66;55.96;99869.19;4943382;29;20027;-87
2022/03/17 03:44:25;;;;;;;3.00;1.40;;;;;;;19.66;56.01;99867.41;4941721;29;20023;-87
2022/03/17 03:46:50;;;;;;;5.30;1.75;;;;;;;19.67;55.78;99878.84;4941004;29;20073;-86
2022/03/17 03:49:16;;;;;;;3.47;1.50;;;;;;;19.67;55.85;99871.75;4942450;29;20485;-87
2022/03/17 03:51:41;;;;;;;5.78;2.03;;;;;;;19.69;55.91;99876.97;4925989;29;20027;-86
2022/03/17 03:54:13;;;;;;;6.03;2.33;;;;;;;19.67;56.13;99878.84;4926164;29;20097;-87
2022/03/17 03:56:47;;;;;;;3.35;1.65;;;;;;;19.67;55.77;99873.56;4942431;29;20024;-87
2022/03/17 03:59:20;;;;;;;4.07;1.77;;;;;;;19.66;55.97;99877.16;4944622;29;20127;-87
2022/03/17 04:01:51;;;;;;;4.68;1.75;;;;;;;19.67;56.05;99876.22;4942518;29;20038;-87
2022/03/17 04:04:20;;;;;;;4.95;1.65;;;;;;;19.66;55.96;99871.84;4925987;29;20039;-87
2022/03/17 04:06:50;;;;;;;3.25;1.67;;;;;;;19.64;55.76;99871.03;4925807;29;20027;-88
2022/03/17 04:09:19;;;;;;;3.00;1.50;;;;;;;19.65;55.93;99875.41;4941843;29;20020;-87
2022/03/17 04:11:46;;;;;;;3.22;1.40;;;;;;;19.64;55.81;99879.00;4925006;29;20051;-87
2022/03/17 04:14:13;;;;;;;3.20;1.35;;;;;;;19.64;55.93;99876.34;4941734;29;20035;-87
2022/03/17 04:16:39;;;;;;;3.63;1.48;;;;;;;19.65;56.00;99878.91;4941982;29;20461;-86
2022/03/17 04:19:05;;;;;;;4.03;1.75;;;;;;;19.62;55.96;99876.44;4925231;29;20028;-87
2022/03/17 04:21:31;;;;;;;2.30;1.20;;;;;;;19.64;56.00;99879.84;4940748;29;20472;-87
2022/03/17 04:23:58;;;;;;;4.05;2.05;;;;;;;19.65;55.89;99878.06;4941594;29;20106;-87
2022/03/17 04:26:24;;;;;;;4.85;1.85;;;;;;;19.64;56.04;99884.28;4939731;29;20047;-86
2022/03/17 04:28:50;;;;;;;3.42;1.33;;;;;;;19.64;55.86;99879.84;4924213;29;20454;-86
2022/03/17 04:31:15;;;;;;;3.22;1.50;;;;;;;19.66;56.10;99882.44;4940383;29;20031;-86
2022/03/17 04:33:41;;;;;;;4.18;1.95;;;;;;;19.63;55.85;99882.56;4941023;29;20438;-87
2022/03/17 04:36:07;;;;;;;4.30;1.70;;;;;;;19.64;56.05;99884.28;4941503;29;20031;-86
2022/03/17 04:38:33;;;;;;;4.70;1.50;;;;;;;19.63;56.10;99878.16;4925834;29;20038;-85
2022/03/17 04:40:59;;;;;;;3.33;1.45;;;;;;;19.64;56.21;99881.63;4926293;29;20028;-86
2022/03/17 04:43:25;;;;;;;3.88;1.30;;;;;;;19.65;55.87;99886.00;4940928;29;20042;-85
2022/03/17 04:45:50;;;;;;;4.28;1.55;;;;;;;19.64;55.95;99885.16;4924742;29;20067;-87
2022/03/17 04:48:16;;;;;;;1.85;1.20;;;;;;;19.64;56.07;99884.28;4925212;29;20094;-87
2022/03/17 04:50:42;;;;;;;4.25;1.42;;;;;;;19.64;56.03;99885.16;4941413;29;20032;-87
2022/03/17 04:53:26;;;;;;;6.00;1.65;;;;;;;19.64;56.01;99887.81;4940703;29;20031;-87
2022/03/17 04:55:53;;;;;;;4.20;1.50;;;;;;;19.64;56.07;99890.44;4941910;29;20047;-87
2022/03/17 04:58:19;;;;;;;3.95;1.50;;;;;;;19.65;55.95;99891.28;4940523;29;20047;-87
2022/03/17 05:00:45;;;;;;;3.78;1.73;;;;;;;19.65;56.09;99893.94;4942906;29;20036;-86
2022/03/17 05:03:12;;;;;;;3.50;1.52;;;;;;;19.64;56.01;99892.22;4943766;29;20118;-87
2022/03/17 05:05:37;;;;;;;6.20;1.63;;;;;;;19.64;56.00;99885.16;4944861;29;20058;-87
2022/03/17 05:08:05;;;;;;;4.30;1.80;;;;;;;19.64;55.75;99894.88;4927844;29;20118;-86
2022/03/17 05:10:33;;;;;;;4.47;1.48;;;;;;;19.64;55.96;99889.56;4927318;29;20469;-87
2022/03/17 05:12:59;;;;;;;3.53;1.50;;;;;;;19.64;55.83;99889.56;4943291;29;20035;-87
2022/03/17 05:15:25;;;;;;;4.65;1.75;;;;;;;19.64;55.77;99898.38;4943411;29;20086;-88
2022/03/17 05:17:51;;;;;;;4.03;1.77;;;;;;;19.63;56.04;99898.47;4944071;29;20469;-87
2022/03/17 05:20:16;;;;;;;3.92;1.40;;;;;;;19.65;56.08;99899.22;4944913;29;20032;-86
2022/03/17 05:22:43;;;;;;;4.13;1.50;;;;;;;19.64;56.08;99905.47;4944504;29;20051;-87
2022/03/17 05:25:12;;;;;;;5.47;1.88;;;;;;;19.63;56.22;99907.28;4947900;29;20042;-87
2022/03/17 05:27:42;;;;;;;4.28;1.50;;;;;;;19.62;56.04;99905.56;4949800;29;20031;-87
2022/03/17 05:30:17;;;;;;;6.10;1.73;;;;;;;19.63;56.09;99903.75;4933300;29;20028;-87
2022/03/17 05:32:44;;;;;;;3.75;1.23;;;;;;;19.64;56.27;99905.47;4932225;29;20046;-88
2022/03/17 05:35:11;;;;;;;5.68;1.58;;;;;;;19.63;56.10;99914.34;4931169;29;20035;-87
2022/03/17 05:37:36;;;;;;;4.53;1.70;;;;;;;19.63;56.08;99909.03;4945060;29;20054;-87
2022/03/17 05:40:09;;;;;;;3.53;1.67;;;;;;;19.62;56.16;99908.22;4924396;29;20469;-86
2022/03/17 05:42:36;;;;;;;5.60;1.83;;;;;;;19.64;55.95;99921.34;4939880;29;20035;-85
2022/03/17 05:45:03;;;;;;;4.07;1.30;;;;;;;19.63;56.12;99919.63;4940631;29;20027;-85
2022/03/17 05:47:39;;;;;;;2.88;1.35;;;;;;;19.63;56.20;99914.34;4940435;29;20035;-85
2022/03/17 05:50:07;;;;;;;4.85;1.85;;;;;;;19.63;56.09;99920.50;4941235;29;20433;-85
2022/03/17 05:52:33;;;;;;;4.50;1.77;;;;;;;19.64;56.14;99918.69;4937306;29;20054;-85
2022/03/17 05:54:58;;;;;;;3.72;1.58;;;;;;;19.62;56.12;99917.94;4921727;29;20449;-85
2022/03/17 05:57:24;;;;;;;4.70;1.88;;;;;;;19.63;56.00;99930.22;4937605;29;20482;-87
2022/03/17 05:59:49;;;;;;;4.95;1.50;;;;;;;19.62;55.94;99928.50;4937837;29;20358;-85
2022/03/17 06:02:15;;;;;;;4.60;1.80;;;;;;;19.64;56.07;99946.03;4923422;29;20064;-85
2022/03/17 06:04:41;;;;;;;6.57;1.88;;;;;;;19.63;56.05;99943.47;4941083;29;20023;-86
2022/03/17 06:07:07;;;;;;;5.03;1.50;;;;;;;19.63;56.29;99946.09;4940219;29;20023;-85
2022/03/17 06:09:33;;;;;;;5.22;1.67;;;;;;;19.62;56.16;99936.47;4938635;29;20038;-89
2022/03/17 06:12:00;;;;;;;3.97;1.50;;;;;;;19.65;56.13;99944.25;4939224;29;20039;-87
2022/03/17 06:14:27;;;;;;;3.05;1.42;;;;;;;19.64;56.57;99943.41;4941982;29;20376;-91
2022/03/17 06:16:53;;;;;;;4.68;1.52;;;;;;;19.66;56.58;99945.97;4942380;29;20040;-88
2022/03/17 06:19:19;;;;;;;5.57;1.73;;;;;;;19.66;57.52;99943.34;4928023;29;20055;-88
2022/03/17 06:21:45;;;;;;;6.28;1.92;;;;;;;19.67;57.51;99942.41;4927439;29;20046;-89
2022/03/17 06:24:11;;;;;;;4.65;1.83;;;;;;;19.71;57.38;99949.28;4929513;29;20027;-90
2022/03/17 06:26:36;;;;;;;6.03;1.98;;;;;;;19.71;57.68;99949.28;4924857;29;20521;-88
2022/03/17 06:29:08;;;;;;;6.05;1.88;;;;;;;19.73;57.82;99953.53;4944672;29;20118;-91
2022/03/17 06:31:36;;;;;;;5.78;2.08;;;;;;;19.75;57.97;99953.47;4930074;29;20036;-90
2022/03/17 06:34:02;;;;;;;5.90;1.80;;;;;;;19.77;57.99;99954.28;4946807;29;20027;-92
2022/03/17 06:36:31;;;;;;;8.35;2.10;;;;;;;19.77;57.66;99951.63;4938176;29;20062;-93
2022/03/17 06:38:56;;;;;;;5.45;2.08;;;;;;;19.78;57.77;99961.28;4953819;29;20057;-93
2022/03/17 06:41:22;;;;;;;6.18;2.53;;;;;;;19.78;57.56;99955.09;4953518;29;20493;-93
2022/03/17 06:43:47;;;;;;;5.70;2.10;;;;;;;19.78;57.62;99963.91;4951703;29;20031;-92
2022/03/17 06:46:14;;;;;;;5.95;2.00;;;;;;;19.77;57.49;99958.69;4947602;29;20032;-89
2022/03/17 06:48:39;;;;;;;5.70;2.10;;;;;;;19.76;57.36;99965.75;4948401;29;20128;-90
2022/03/17 06:51:06;;;;;;;6.43;2.30;;;;;;;19.76;57.16;99971.06;4931403;29;20063;-88
2022/03/17 06:53:32;;;;;;;4.82;2.42;;;;;;;19.77;57.23;99969.28;4945453;29;20476;-90
2022/03/17 06:55:58;;;;;;;6.53;2.00;;;;;;;19.75;57.23;99966.69;4945247;29;20027;-91
2022/03/17 06:58:23;;;;;;;5.22;2.03;;;;;;;19.75;57.03;99972.00;4928387;29;20461;-90
2022/03/17 07:00:49;;;;;;;4.53;2.17;;;;;;;19.75;57.08;99972.00;4928169;29;20350;-91
2022/03/17 07:03:14;;;;;;;6.32;2.28;;;;;;;19.75;56.84;99976.47;4945337;29;20031;-89
2022/03/17 07:05:40;;;;;;;7.10;2.20;;;;;;;19.75;57.13;99972.00;4942903;29;20024;-90
2022/03/17 07:08:06;;;;;;;4.60;1.83;;;;;;;19.74;57.02;99975.59;4945433;29;20028;-90
2022/03/17 07:10:31;;;;;;;5.90;2.13;;;;;;;19.75;56.68;99982.59;4944045;29;20055;-90
2022/03/17 07:12:57;;;;;;;5.30;2.22;;;;;;;19.74;56.70;99980.88;4948145;29;20031;-90
2022/03/17 07:15:22;;;;;;;5.55;2.08;;;;;;;19.73;56.72;99979.16;4944051;29;20031;-90
2022/03/17 07:17:48;;;;;;;6.18;2.13;;;;;;;19.73;56.76;99980.00;4943201;29;20036;-90
2022/03/17 07:20:15;;;;;;;4.97;1.98;;;;;;;19.72;56.91;99982.75;4947726;29;20115;-90
2022/03/17 07:22:50;;;;;;;5.60;2.10;;;;;;;19.72;56.70;99982.75;4941715;29;20091;-90
2022/03/17 07:25:19;;;;;;;5.10;2.10;;;;;;;19.72;56.58;99982.75;4926311;29;20035;-91
2022/03/17 07:27:47;;;;;;;6.63;2.33;;;;;;;19.72;56.84;99980.94;4942751;29;20453;-90
2022/03/17 07:30:22;;;;;;;4.90;2.33;;;;;;;19.71;56.60;99983.69;4944024;29;20028;-90
2022/03/17 07:32:52;;;;;;;5.70;2.17;;;;;;;19.72;56.54;99993.34;4944875;29;20032;-90
2022/03/17 07:35:18;;;;;;;6.10;2.00;;;;;;;19.71;56.59;99987.19;4928400;29;20346;-91
2022/03/17 07:37:44;;;;;;;5.22;2.05;;;;;;;19.72;56.40;100003.94;4946199;29;20031;-91
2022/03/17 07:40:11;;;;;;;4.28;2.08;;;;;;;19.72;56.60;99998.63;4947243;29;20031;-90
2022/03/17 07:42:37;;;;;;;6.72;2.40;;;;;;;19.70;56.68;99997.84;4944402;29;20063;-89
2022/03/17 07:45:04;;;;;;;5.90;2.05;;;;;;;19.70;56.58;100006.66;4946280;29;20027;-92
2022/03/17 07:47:33;;;;;;;7.15;2.65;;;;;;;19.70;56.45;100011.06;4930787;29;20031;-90
2022/03/17 07:50:01;;;;;;;5.53;2.10;;;;;;;19.69;56.71;100004.06;4930604;29;20038;-91
2022/03/17 07:52:26;;;;;;;5.90;2.30;;;;;;;19.69;56.92;100009.34;4930515;29;20461;-92
2022/03/17 07:54:52;;;;;;;7.57;2.92;;;;;;;19.70;56.57;100005.78;4947343;29;20104;-91
2022/03/17 07:57:17;;;;;;;6.47;2.55;;;;;;;19.68;56.69;100008.53;4931142;29;20095;-91
2022/03/17 07:59:43;;;;;;;8.38;2.03;;;;;;;19.69;56.73;100001.41;4947334;29;20062;-92
2022/03/17 08:02:09;;;;;;;5.57;2.55;;;;;;;19.68;56.67;100002.34;4947609;29;20036;-91
2022/03/17 08:04:47;;;;;;;4.32;2.13;;;;;;;19.69;56.66;100012.00;4946224;29;20035;-91
2022/03/17 08:07:13;;;;;;;5.40;2.25;;;;;;;19.70;56.37;100011.06;4945225;29;20039;-91
2022/03/17 08:09:39;;;;;;;5.50;2.13;;;;;;;19.69;56.56;100014.66;4942394;29;21309;-91
2022/03/17 08:12:06;;;;;;;5.07;2.10;;;;;;;19.71;56.59;100010.16;4942882;29;20032;-90
2022/03/17 08:14:38;;;;;;;5.85;2.50;;;;;;;19.69;56.67;100014.66;4942839;29;20036;-91
2022/03/17 08:17:04;;;;;;;4.25;2.25;;;;;;;19.69;56.39;100023.47;4926950;29;20350;-91
2022/03/17 08:19:31;;;;;;;4.80;2.10;;;;;;;19.69;56.45;100026.13;4942516;29;20036;-91
2022/03/17 08:21:58;;;;;;;8.80;2.47;;;;;;;19.69;56.37;100019.94;4926800;29;20031;-90
2022/03/17 08:24:24;;;;;;;5.22;2.17;;;;;;;19.69;56.52;100030.53;4944373;29;20028;-90
2022/03/17 08:26:55;;;;;;;4.93;2.20;;;;;;;19.70;56.64;100033.13;4941952;29;20031;-90
2022/03/17 08:29:21;;;;;;;4.18;2.35;;;;;;;19.69;56.58;100042.00;4942371;29;20079;-91
2022/03/17 08:31:47;;;;;;;5.57;2.40;;;;;;;19.70;56.46;100049.00;4926941;29;20046;-90
2022/03/17 08:34:13;;;;;;;3.70;2.10;;;;;;;19.70;56.24;100049.00;4942117;29;20031;-90
2022/03/17 08:36:39;;;;;;;4.97;2.40;;;;;;;19.70;56.34;100053.44;4943730;29;20569;-89
2022/03/17 08:39:05;;;;;;;4.82;2.20;;;;;;;19.70;56.52;100053.44;4942568;29;20365;-91
2022/03/17 08:41:31;;;;;;;5.47;2.65;;;;;;;19.71;56.43;100060.47;4928605;29;20031;-91
2022/03/17 08:43:58;;;;;;;5.93;2.50;;;;;;;19.72;56.42;100062.19;4925751;29;20456;-91
2022/03/17 08:49:19;;;;;;;5.88;2.67;;;;;;;19.72;56.38;100063.03;4942679;29;20091;-91
2022/03/17 08:51:46;;;;;;;5.15;2.25;;;;;;;19.71;56.27;100065.78;4925756;29;20027;-91
2022/03/17 08:54:12;;;;;;;4.80;2.33;;;;;;;19.70;56.53;100066.66;4941383;29;20027;-91
2022/03/17 08:56:38;;;;;;;6.20;2.53;;;;;;;19.71;56.30;100071.91;4941741;29;20031;-90
2022/03/17 08:59:05;;;;;;;5.18;2.50;;;;;;;19.72;56.40;100067.47;4924395;29;20381;-90
2022/03/17 09:01:31;;;;;;;6.07;2.65;;;;;;;19.72;56.57;100072.78;4926073;29;20038;-91
2022/03/17 09:03:57;;;;;;;6.30;2.95;;;;;;;19.72;56.28;100073.63;4943718;29;20035;-91
2022/03/17 09:06:22;;;;;;;5.22;2.50;;;;;;;19.72;56.22;100072.78;4944685;29;20090;-91
2022/03/17 09:08:48;;;;;;;5.45;2.60;;;;;;;19.75;56.38;100077.06;4934963;29;20031;-93
2022/03/17 09:11:14;;;;;;;4.90;2.72;;;;;;;19.73;56.44;100079.78;4951569;29;20402;-91
2022/03/17 09:13:41;;;;;;;5.97;2.80;;;;;;;19.74;56.41;100081.50;4936524;29;20032;-93
2022/03/17 09:16:07;;;;;;;5.60;2.35;;;;;;;19.73;56.38;100085.91;4935752;29;20031;-92
2022/03/17 09:18:33;;;;;;;5.35;2.25;;;;;;;19.72;56.16;100080.72;4936319;29;20071;-92
2022/03/17 09:21:00;;;;;;;5.82;2.83;;;;;;;19.73;56.48;100085.09;4951507;29;20031;-92
2022/03/17 09:23:26;;;;;;;6.90;2.38;;;;;;;19.75;56.34;100092.97;4935932;29;20032;-92
2022/03/17 09:25:53;;;;;;;6.55;2.35;;;;;;;19.73;56.51;100090.38;4952584;29;20425;-91
2022/03/17 09:28:18;;;;;;;5.70;2.60;;;;;;;19.73;56.30;100095.66;4937088;29;20110;-92
2022/03/17 09:30:44;;;;;;;5.50;2.55;;;;;;;19.74;56.44;100097.38;4935072;29;20563;-92
2022/03/17 09:33:10;;;;;;;4.97;2.60;;;;;;;19.75;56.20;100096.44;4950941;29;20078;-92
2022/03/17 09:35:36;;;;;;;5.95;2.22;;;;;;;19.74;56.25;100097.38;4951281;29;20106;-93
2022/03/17 09:38:06;;;;;;;4.93;2.75;;;;;;;19.74;56.29;100092.09;4935732;29;20047;-92
2022/03/17 09:40:34;;;;;;;6.22;2.50;;;;;;;19.76;56.08;100095.50;4936438;29;20032;-92
2022/03/17 09:45:45;;;;;;;6.88;3.20;;;;;;;19.77;56.21;100102.56;4953708;29;20046;-92
2022/03/17 09:48:13;;;;;;;7.40;2.83;;;;;;;19.77;56.11;100101.69;4939280;29;20467;-92
2022/03/17 09:50:40;;;;;;;4.88;2.47;;;;;;;19.75;56.21;100091.16;4918421;29;20051;-91
2022/03/17 09:53:07;;;;;;;5.00;2.60;;;;;;;19.77;56.19;100097.25;4934423;29;20044;-92
2022/03/17 09:55:34;;;;;;;5.32;2.38;;;;;;;19.77;56.17;100094.63;4917971;29;20032;-92
2022/03/17 09:58:06;;;;;;;5.53;2.47;;;;;;;19.76;56.36;100095.50;4917991;29;20032;-92
2022/03/17 10:00:47;;;;;;;6.30;2.65;;;;;;;19.77;56.25;100099.03;4917300;29;20028;-92
2022/03/17 10:03:21;;;;;;;6.47;2.63;;;;;;;19.79;56.30;100100.69;4933492;29;20032;-92
2022/03/17 10:05:47;;;;;;;5.10;2.75;;;;;;;19.78;56.41;100092.81;4933577;29;20060;-92
2022/03/17 10:08:14;;;;;;;7.75;2.85;;;;;;;19.79;56.37;100091.88;4918472;29;20039;-92
2022/03/17 10:10:42;;;;;;;4.60;2.45;;;;;;;19.78;56.08;100096.31;4931730;29;20123;-92
2022/03/17 10:13:17;;;;;;;5.70;2.70;;;;;;;19.80;56.40;100094.44;4930575;29;20032;-92
2022/03/17 10:16:04;;;;;;;5.20;2.83;;;;;;;19.82;56.04;100104.97;4914328;29;20032;-92
2022/03/17 10:18:30;;;;;;;;;;;;;;;19.82;56.23;100102.34;4932511;29;20083;-93
2022/03/17 10:21:24;;;;;;;5.93;2.47;;;;;;;19.81;56.13;100098.81;4916865;29;19984;-91
2022/03/17 10:23:54;;;;;;;6.10;2.33;;;;;;;19.81;56.02;100098.81;4916495;29;20032;-92
2022/03/17 10:26:39;;;;;;;5.22;2.60;;;;;;;19.82;56.18;100099.69;4933482;29;20036;-91
2022/03/17 10:29:17;;;;;;;9.15;3.08;;;;;;;19.83;56.44;100106.69;4933742;29;20112;-92
2022/03/17 10:32:13;;;;;;;5.88;2.53;;;;;;;19.84;56.04;100103.13;4934236;29;20087;-92
2022/03/17 10:34:48;;;;;;;5.43;3.05;;;;;;;19.83;56.09;100104.91;4918756;29;20032;-93
2022/03/17 10:37:16;;;;;;;5.75;2.90;;;;;;;19.83;56.08;100107.56;4930398;29;20132;-91
2022/03/17 10:39:45;;;;;;;6.28;2.80;;;;;;;19.84;56.36;100109.28;4913614;29;20099;-91
2022/03/17 10:42:19;;;;;;;5.18;2.70;;;;;;;19.84;56.14;100109.28;4927455;29;20525;-93
2022/03/17 10:44:54;;;;;;;7.65;3.15;;;;;;;19.84;56.07;100108.41;4911391;29;20466;-92
2022/03/17 10:47:28;;;;;;;6.63;2.80;;;;;;;19.85;56.09;100105.69;4928628;29;20397;-91
2022/03/17 10:50:18;;;;;;;4.95;2.70;;;;;;;19.86;56.09;100106.56;4912739;29;20362;-92
2022/03/17 10:52:47;;;;;;;4.85;2.67;;;;;;;19.85;56.18;100105.69;4912502;29;20036;-92
2022/03/17 10:55:14;;;;;;;4.90;2.80;;;;;;;19.86;55.98;100104.75;4929323;29;20040;-92
2022/03/17 10:57:40;;;;;;;5.35;2.95;;;;;;;19.87;56.15;100108.28;4928336;29;20060;-92
2022/03/17 11:00:12;;;;;;;5.15;2.70;;;;;;;19.87;56.05;100108.28;4912307;29;20039;-92
2022/03/17 11:02:38;;;;;;;5.47;2.78;;;;;;;19.89;56.04;100113.50;4912125;29;20060;-91
2022/03/17 11:05:06;;;;;;;5.63;2.80;;;;;;;19.90;56.13;100117.88;4911919;29;20036;-91
2022/03/17 11:07:33;;;;;;;7.15;3.05;;;;;;;19.90;56.19;100107.28;4927745;29;20043;-92
2022/03/17 11:10:07;;;;;;;6.18;3.10;;;;;;;19.92;56.08;100116.00;4910965;29;20111;-91
2022/03/17 11:12:34;;;;;;;7.30;3.00;;;;;;;19.92;56.34;100116.88;4930379;29;20107;-91
2022/03/17 11:15:01;;;;;;;6.25;3.20;;;;;;;19.92;56.25;100126.59;4912849;29;20041;-91
2022/03/17 11:17:35;;;;;;;6.28;2.72;;;;;;;19.94;56.28;100124.72;4926653;29;20070;-92
2022/03/17 11:20:06;;;;;;;6.70;2.60;;;;;;;19.93;56.33;100123.03;4929805;29;20088;-92
2022/03/17 11:22:33;;;;;;;8.80;3.40;;;;;;;19.93;56.34;100123.03;4914695;29;20028;-90
2022/03/17 11:25:18;;;;;;;5.95;2.72;;;;;;;19.94;56.13;100130.03;4933390;29;20019;-92
2022/03/17 11:27:48;;;;;;;7.60;2.92;;;;;;;19.95;56.25;100131.78;4931272;29;20024;-90
2022/03/17 11:30:16;;;;;;;5.28;2.65;;;;;;;19.93;56.07;100129.19;4931560;29;20095;-92
2022/03/17 11:32:50;;;;;;;5.43;2.72;;;;;;;19.95;56.13;100137.06;4932498;29;20039;-92
2022/03/17 11:35:19;;;;;;;6.03;2.83;;;;;;;19.95;56.29;100134.41;4931217;29;20477;-91
2022/03/17 11:37:45;;;;;;;5.43;2.90;;;;;;;19.95;56.08;100137.91;4917584;29;20099;-91
2022/03/17 11:40:19;;;;;;;5.80;2.95;;;;;;;19.97;56.04;100135.22;4934265;29;20413;-91
2022/03/17 11:43:07;;;;;;;6.82;2.92;;;;;;;19.98;56.38;100131.66;4932850;29;20019;-91
2022/03/17 11:45:37;;;;;;;5.80;3.00;;;;;;;19.97;56.20;100129.94;4924932;29;20152;-91
2022/03/17 11:48:10;;;;;;;5.53;2.88;;;;;;;19.97;56.21;100130.81;4928381;29;20110;-89